Wallace, Canada
Current Conditions -  °F | °C
As of 1:00 PM on Thursday 23 Oct 2014 (Local Time) from CYYG Reporting Station
Few Clouds Few Clouds  
Wind Chill: 57°   Ceiling: Unl
Heat Index: 57°   Visibility: 15mi
Dew Point: 45°   Wind: 15mph
Humidity: 63%   Direction: 50°NE
Pressure: 30.12"   Gusts: NA
Location:  45.8°N, 63.47°W
Report Text: CYYG 231600Z 05013KT 15SM FEW020 14/07 A3012 RMK SC1 SC TR PRESFR SLP202
Loading
Personal Weather Stations






























Interactive Weather Map
Tropical Storm Tracking
New forecast layout! Learn more

10-Day Weather Forecast

Advertisements
Track Severe Weather on mobile